Time;durP1;ratioP1;P1;durP2;ratioP2;P2;SDS_P1;SDS_P2;PMS_P1;PMS_P2;Temp;Humidity;BMP_temperature;BMP_pressure;BME280_temperature;BME280_humidity;BME280_pressure;Samples;Min_cycle;Max_cycle;Signal;HPM_P1;HPM_P2
2021/06/30 00:00:25;;;;;;;4.50;2.20;;;16.20;99.90;;;14.91;94.50;100773.50;3520074;40;102420;-45
2021/06/30 00:02:58;;;;;;;3.45;1.80;;;16.20;99.90;;;14.91;95.09;100762.50;3519816;39;103163;-42
2021/06/30 00:05:30;;;;;;;4.45;2.22;;;16.20;99.90;;;14.94;94.92;100753.78;3519674;39;103155;-41
2021/06/30 00:08:04;;;;;;;3.20;1.90;;;16.30;99.90;;;14.99;94.90;100747.56;3518908;40;104640;-42
2021/06/30 00:10:37;;;;;;;4.75;2.00;;;16.30;99.90;;;15.03;94.66;100737.75;3520307;39;102154;-41
2021/06/30 00:13:10;;;;;;;3.60;2.17;;;16.30;99.90;;;14.96;94.27;100723.31;3520095;39;102427;-41
2021/06/30 00:15:45;;;;;;;3.45;2.03;;;16.30;99.90;;;14.94;94.36;100711.75;3519981;39;103297;-42
2021/06/30 00:18:19;;;;;;;3.08;1.92;;;16.30;99.90;;;14.86;94.83;100712.97;3519990;39;102307;-42
2021/06/30 00:20:52;;;;;;;3.65;2.08;;;16.30;99.90;;;14.88;94.99;100730.03;3519987;39;103318;-42
2021/06/30 00:23:25;;;;;;;3.97;1.77;;;16.30;99.90;;;14.92;95.03;100744.94;3519630;39;102162;-41
2021/06/30 00:25:57;;;;;;;4.38;1.92;;;16.30;99.90;;;14.93;94.96;100738.38;3519780;40;102336;-42
2021/06/30 00:28:30;;;;;;;4.32;2.10;;;16.30;99.90;;;14.94;95.18;100740.03;3520140;40;103364;-42
2021/06/30 00:31:02;;;;;;;3.83;1.88;;;16.30;99.90;;;14.92;95.29;100739.44;3520148;40;102819;-42
2021/06/30 00:33:35;;;;;;;3.65;2.00;;;16.30;99.90;;;14.92;95.33;100735.88;3520140;39;102266;-42
2021/06/30 00:36:02;;;;;;;2.67;1.80;;;16.30;99.90;;;14.94;95.64;100731.78;3519729;40;102569;-41
2021/06/30 00:38:35;;;;;;;3.72;2.00;;;16.30;99.90;;;14.90;95.49;100719.63;3520200;39;102273;-42
2021/06/30 00:41:07;;;;;;;3.50;2.00;;;16.30;99.90;;;14.87;95.28;100720.13;3519659;39;102227;-44
2021/06/30 00:43:40;;;;;;;4.03;1.90;;;16.20;99.90;;;14.83;95.06;100718.94;3520135;40;104068;-41
2021/06/30 00:46:13;;;;;;;4.20;2.00;;;16.20;99.90;;;14.82;95.13;100714.53;3519569;39;102625;-42
2021/06/30 00:48:45;;;;;;;4.50;1.90;;;16.20;99.90;;;14.84;95.28;100711.53;3519841;39;104081;-41
2021/06/30 00:51:18;;;;;;;5.18;2.30;;;16.10;99.90;;;14.82;94.88;100720.03;3520032;39;102524;-41
2021/06/30 00:53:51;;;;;;;4.45;2.20;;;16.20;99.90;;;14.78;94.39;100711.44;3518552;39;103143;-42
2021/06/30 00:56:27;;;;;;;4.03;2.10;;;16.10;99.90;;;14.73;94.21;100716.81;3649842;22;103729;-40
2021/06/30 00:59:02;;;;;;;4.10;2.40;;;16.10;99.90;;;14.72;93.98;100709.66;3515690;40;103072;-40
2021/06/30 01:01:29;;;;;;;4.05;2.38;;;16.10;99.90;;;14.66;94.13;100711.44;3519564;39;102333;-40
2021/06/30 01:04:01;;;;;;;3.88;2.33;;;16.00;99.90;;;14.59;94.10;100708.00;3519306;39;102126;-40
2021/06/30 01:06:34;;;;;;;6.43;2.40;;;16.00;99.90;;;14.55;94.27;100709.56;3513368;40;102466;-40
2021/06/30 01:09:07;;;;;;;3.55;1.90;;;15.90;99.90;;;14.55;94.39;100704.06;3509666;40;103157;-40
2021/06/30 01:11:41;;;;;;;3.45;2.25;;;15.90;99.90;;;14.59;94.69;100702.50;3509862;40;102488;-40
2021/06/30 01:14:29;;;;;;;4.30;2.35;;;15.90;99.90;;;14.60;94.76;100695.94;3509465;40;102313;-40
2021/06/30 01:17:06;;;;;;;4.03;2.50;;;15.90;99.90;;;14.61;94.71;100692.13;3509607;40;102295;-40
2021/06/30 01:19:38;;;;;;;5.03;2.80;;;16.00;99.90;;;14.70;95.00;100686.22;3509559;40;102394;-40
2021/06/30 01:22:12;;;;;;;16.80;2.90;;;16.00;99.90;;;14.66;94.79;100694.97;3509630;40;102747;-40
2021/06/30 01:24:39;;;;;;;5.30;2.50;;;16.00;99.90;;;14.68;95.31;100691.97;3508288;40;104030;-41
2021/06/30 01:27:13;;;;;;;4.97;2.80;;;16.00;99.90;;;14.73;95.59;100691.28;3509421;40;102332;-42
2021/06/30 01:29:47;;;;;;;5.20;2.97;;;16.00;99.90;;;14.82;95.63;100692.56;3509558;40;103206;-40
2021/06/30 01:32:19;;;;;;;5.30;3.50;;;16.10;99.90;;;14.84;95.18;100693.16;3509362;40;102460;-41
2021/06/30 01:34:52;;;;;;;7.35;3.53;;;16.10;99.90;;;14.82;94.95;100692.56;3509350;40;104241;-40
2021/06/30 01:37:24;;;;;;;6.55;3.10;;;16.10;99.90;;;14.81;95.34;100696.38;3509234;40;102518;-40
2021/06/30 01:39:56;;;;;;;5.65;3.50;;;16.10;99.90;;;14.80;95.36;100689.22;3509260;40;103171;-40
2021/06/30 01:42:29;;;;;;;5.90;3.45;;;16.10;99.90;;;14.86;95.86;100690.19;3509611;40;102471;-40
2021/06/30 01:45:01;;;;;;;5.75;3.22;;;16.10;99.90;;;14.85;95.61;100674.75;3509198;40;103300;-42
2021/06/30 01:47:33;;;;;;;5.63;3.17;;;16.20;99.90;;;14.85;95.67;100680.25;3509663;40;102469;-41
2021/06/30 01:50:08;;;;;;;5.35;3.60;;;16.20;99.90;;;14.81;95.72;100677.16;3509134;40;102323;-41
2021/06/30 01:52:42;;;;;;;6.32;3.15;;;16.20;99.90;;;14.81;95.69;100668.94;3509504;40;102909;-41
2021/06/30 01:55:15;;;;;;;5.70;3.78;;;16.20;99.90;;;14.81;95.31;100674.44;3509055;40;102328;-40
2021/06/30 01:57:51;;;;;;;6.70;3.60;;;16.20;99.90;;;14.79;95.58;100682.88;3508995;40;102548;-41
2021/06/30 02:00:23;;;;;;;6.20;3.38;;;16.10;99.90;;;14.78;95.87;100685.91;3509184;40;103226;-45
2021/06/30 02:02:56;;;;;;;6.18;3.60;;;16.10;99.90;;;14.76;95.95;100693.56;3509297;40;102392;-41
2021/06/30 02:05:30;;;;;;;5.00;3.50;;;16.10;99.90;;;14.76;95.90;100683.38;3510377;40;102182;-41
2021/06/30 02:08:03;;;;;;;5.50;3.45;;;16.10;99.90;;;14.77;96.37;100684.22;3510305;40;102459;-40
2021/06/30 02:10:35;;;;;;;6.90;3.85;;;16.10;99.90;;;14.75;96.61;100683.66;3511132;40;103122;-40
2021/06/30 02:13:08;;;;;;;6.30;4.03;;;16.10;99.90;;;14.73;96.89;100681.13;3510664;40;102366;-40
2021/06/30 02:15:41;;;;;;;6.05;3.85;;;16.10;99.90;;;14.66;96.49;100677.66;3510186;40;102536;-41
2021/06/30 02:18:15;;;;;;;6.80;3.85;;;16.00;99.90;;;14.66;96.70;100669.44;3510411;40;102490;-41
2021/06/30 02:20:48;;;;;;;7.20;4.55;;;16.00;99.90;;;14.60;96.52;100659.44;3510436;40;103139;-42
2021/06/30 02:23:21;;;;;;;5.95;4.20;;;16.00;99.90;;;14.63;96.47;100678.16;3510667;40;103434;-41
2021/06/30 02:25:53;;;;;;;6.68;4.45;;;16.00;99.90;;;14.63;96.25;100678.16;3510392;40;102297;-40
2021/06/30 02:28:26;;;;;;;7.30;4.78;;;16.00;99.90;;;14.68;96.59;100676.31;3510686;40;102249;-41
2021/06/30 02:31:00;;;;;;;7.32;4.57;;;16.00;99.90;;;14.66;96.56;100670.25;3509980;40;102317;-41
2021/06/30 02:33:32;;;;;;;7.78;4.78;;;16.00;99.90;;;14.68;96.76;100662.59;3510481;40;102480;-41
2021/06/30 02:36:05;;;;;;;7.82;5.00;;;16.00;99.90;;;14.68;97.00;100659.03;3510049;40;103353;-41
2021/06/30 02:38:38;;;;;;;7.45;4.97;;;16.00;99.90;;;14.68;96.78;100661.78;3510362;40;102336;-41
2021/06/30 02:41:11;;;;;;;9.68;5.25;;;16.00;99.90;;;14.65;96.69;100659.53;3510240;40;103104;-40
2021/06/30 02:43:43;;;;;;;8.35;5.05;;;16.00;99.90;;;14.65;96.85;100662.28;3510535;40;102450;-41
2021/06/30 02:46:16;;;;;;;7.50;5.18;;;16.00;99.90;;;14.64;96.67;100666.09;3510458;40;103376;-41
2021/06/30 02:48:48;;;;;;;7.85;4.97;;;16.00;99.90;;;14.64;96.72;100666.09;3510332;40;103290;-41
2021/06/30 02:51:15;;;;;;;6.97;4.68;;;16.00;99.90;;;14.66;96.78;100672.19;3510097;40;102453;-42
2021/06/30 02:53:48;;;;;;;9.43;5.63;;;16.00;99.90;;;14.68;97.07;100675.50;3510320;40;102205;-40
2021/06/30 02:56:21;;;;;;;9.13;5.05;;;16.00;99.90;;;14.73;97.52;100666.59;3510019;40;102651;-41
2021/06/30 02:58:54;;;;;;;10.02;5.85;;;16.00;99.90;;;14.75;97.42;100668.00;3510382;40;103327;-41
2021/06/30 03:01:26;;;;;;;9.55;5.80;;;16.00;99.90;;;14.76;97.64;100668.84;3510090;40;102286;-40
2021/06/30 03:03:59;;;;;;;8.07;5.57;;;16.10;99.90;;;14.76;97.76;100661.41;3510720;40;102561;-40
2021/06/30 03:06:32;;;;;;;10.70;6.25;;;16.10;99.90;;;14.82;97.63;100663.19;3510063;40;103152;-40
2021/06/30 03:09:04;;;;;;;12.80;6.80;;;16.10;99.90;;;14.86;97.93;100662.72;3510354;40;102520;-40
2021/06/30 03:11:38;;;;;;;10.85;6.57;;;16.10;99.90;;;14.92;97.43;100669.97;3510512;40;102331;-42
2021/06/30 03:14:11;;;;;;;8.55;5.57;;;16.20;99.90;;;14.87;97.21;100667.94;3510116;40;104224;-40
2021/06/30 03:16:43;;;;;;;8.18;4.60;;;16.20;99.90;;;14.86;96.89;100676.44;3509854;40;103391;-41
2021/06/30 03:19:16;;;;;;;7.40;4.57;;;16.20;99.90;;;14.86;97.04;100676.44;3510777;40;102243;-40
2021/06/30 03:21:48;;;;;;;7.50;4.50;;;16.20;99.90;;;14.80;96.92;100672.75;3510364;40;103184;-41
2021/06/30 03:24:16;;;;;;;9.55;4.35;;;16.20;99.90;;;14.85;96.37;100680.25;3510225;40;102434;-40
2021/06/30 03:26:43;;;;;;;8.45;4.47;;;16.20;99.90;;;14.81;96.35;100678.00;3510060;40;103546;-41
2021/06/30 03:29:19;;;;;;;7.72;4.22;;;16.10;99.90;;;14.84;96.80;100684.91;3509911;40;102186;-41
2021/06/30 03:31:52;;;;;;;6.90;4.35;;;16.20;99.90;;;14.80;97.01;100676.31;3510365;40;102121;-40
2021/06/30 03:34:25;;;;;;;6.97;3.85;;;16.10;99.90;;;14.84;96.97;100676.69;3510037;40;102438;-41
2021/06/30 03:36:52;;;;;;;6.75;3.78;;;16.20;99.90;;;14.88;95.82;100679.78;3510053;40;103215;-40
2021/06/30 03:39:24;;;;;;;5.65;3.42;;;16.20;99.90;;;14.92;95.74;100680.94;3510352;40;102406;-41
2021/06/30 03:41:57;;;;;;;5.22;3.05;;;16.20;99.90;;;14.82;95.74;100679.66;3510029;40;104006;-40
2021/06/30 03:44:24;;;;;;;6.78;3.30;;;16.20;99.90;;;14.77;95.75;100684.22;3510483;40;102412;-41
2021/06/30 03:46:56;;;;;;;4.70;2.90;;;16.10;99.90;;;14.73;95.81;100683.88;3509777;40;102353;-41
2021/06/30 03:49:29;;;;;;;5.72;3.03;;;16.10;99.90;;;14.74;96.28;100691.03;3509851;40;102279;-40
2021/06/30 03:52:02;;;;;;;5.47;3.00;;;16.10;99.90;;;14.72;96.39;100687.69;3510049;40;102207;-41
2021/06/30 03:54:34;;;;;;;4.93;3.10;;;16.10;99.90;;;14.73;96.53;100694.84;3509813;40;102365;-40
2021/06/30 03:57:07;;;;;;;7.68;3.40;;;16.00;99.90;;;14.75;96.78;100692.69;3509913;40;102247;-40
2021/06/30 03:59:39;;;;;;;5.32;3.08;;;16.10;99.90;;;14.74;96.70;100691.03;3517141;40;103095;-40
2021/06/30 04:02:12;;;;;;;5.30;3.20;;;16.00;99.90;;;14.74;96.93;100695.72;3509998;40;102153;-41
2021/06/30 04:04:45;;;;;;;6.05;3.40;;;16.10;99.90;;;14.80;96.97;100698.28;3509849;40;102339;-40
2021/06/30 04:07:17;;;;;;;5.47;3.03;;;16.10;99.90;;;14.82;97.34;100698.06;3510012;40;102185;-41
2021/06/30 04:09:49;;;;;;;6.20;3.60;;;16.10;99.90;;;14.81;96.93;100705.44;3510244;40;102308;-40
2021/06/30 04:12:22;;;;;;;6.82;2.97;;;16.10;99.90;;;14.83;96.80;100696.97;3509904;40;102143;-41
2021/06/30 04:14:49;;;;;;;5.53;3.00;;;16.10;99.90;;;14.78;96.90;100691.41;3509830;40;102207;-40
2021/06/30 04:17:17;;;;;;;4.35;2.95;;;16.10;99.90;;;14.87;96.49;100700.09;3509982;40;102407;-41
2021/06/30 04:19:49;;;;;;;4.35;2.53;;;16.10;99.90;;;14.87;96.34;100700.91;3510223;40;102382;-41
2021/06/30 04:22:16;;;;;;;4.38;2.60;;;16.10;99.90;;;14.87;96.52;100694.59;3510147;40;104168;-41
2021/06/30 04:24:49;;;;;;;6.18;2.80;;;16.10;99.90;;;14.88;96.39;100691.59;3510079;40;102464;-40
2021/06/30 04:27:21;;;;;;;5.78;2.28;;;16.10;99.90;;;14.98;96.15;100684.59;3510312;40;103272;-40
2021/06/30 04:29:54;;;;;;;5.68;2.65;;;16.20;99.90;;;15.03;95.82;100687.47;3509468;40;102309;-40
2021/06/30 04:32:27;;;;;;;4.82;2.40;;;16.30;99.90;;;15.13;95.90;100682.16;3510014;40;102981;-40
2021/06/30 04:34:59;;;;;;;3.88;2.47;;;16.30;99.90;;;15.21;95.30;100670.75;3509809;40;102333;-41
2021/06/30 04:37:32;;;;;;;3.88;2.42;;;16.40;99.90;;;15.23;94.37;100676.03;3509919;40;103570;-40
2021/06/30 04:40:06;;;;;;;4.60;2.50;;;16.40;99.90;;;15.34;94.86;100661.38;3509759;40;102665;-40
2021/06/30 04:42:38;;;;;;;3.65;2.28;;;16.50;99.90;;;15.48;94.57;100663.81;3510262;40;103003;-41
2021/06/30 04:45:11;;;;;;;3.83;2.03;;;16.60;99.90;;;15.58;93.23;100672.22;3510000;40;102386;-41
2021/06/30 04:47:43;;;;;;;4.82;2.05;;;16.70;99.90;;;15.58;92.61;100666.72;3509700;40;103131;-41
2021/06/30 04:50:16;;;;;;;4.18;1.98;;;16.70;99.90;;;15.62;92.07;100675.31;3509922;40;102532;-40
2021/06/30 04:52:49;;;;;;;4.10;1.80;;;16.80;99.90;;;15.62;91.63;100667.06;3509701;40;103113;-40
2021/06/30 04:55:21;;;;;;;3.75;1.90;;;16.80;99.90;;;15.56;90.49;100660.63;3510080;40;102447;-41
2021/06/30 04:57:53;;;;;;;4.70;2.00;;;16.80;99.90;;;15.56;90.96;100657.88;3510127;40;104223;-40
2021/06/30 05:00:21;;;;;;;5.82;1.92;;;16.80;99.90;;;15.61;91.44;100657.97;3509728;40;102608;-40
2021/06/30 05:02:48;;;;;;;4.40;1.80;;;16.80;99.90;;;15.62;90.86;100656.88;3509404;40;103193;-40
2021/06/30 05:05:16;;;;;;;3.50;1.70;;;16.80;99.90;;;15.80;90.64;100663.19;3509146;40;104156;-41
2021/06/30 05:07:43;;;;;;;4.60;1.70;;;16.90;99.90;;;15.80;89.41;100669.56;3509981;40;105437;-40
2021/06/30 05:10:11;;;;;;;3.97;1.70;;;17.00;99.90;;;15.81;87.96;100665.72;3509805;40;102224;-41
2021/06/30 05:12:38;;;;;;;3.13;1.55;;;17.00;99.90;;;16.07;88.70;100668.03;3510060;40;103266;-40
2021/06/30 05:15:11;;;;;;;3.50;1.67;;;17.10;99.90;;;16.20;87.91;100669.59;3509649;40;103170;-40
2021/06/30 05:17:43;;;;;;;4.18;1.90;;;17.20;99.90;;;16.27;87.14;100672.16;3509723;40;103138;-42
2021/06/30 05:20:16;;;;;;;4.47;2.03;;;17.30;99.90;;;16.29;86.79;100673.56;3509670;40;102409;-40
2021/06/30 05:22:49;;;;;;;3.13;1.80;;;17.40;99.90;;;16.32;87.30;100678.59;3509653;40;102247;-40
2021/06/30 05:25:16;;;;;;;4.75;2.53;;;17.40;99.90;;;16.31;87.32;100678.81;3509764;40;102832;-41
2021/06/30 05:27:48;;;;;;;4.72;2.00;;;17.40;99.90;;;16.29;87.72;100681.81;3509404;40;102283;-40
2021/06/30 05:30:21;;;;;;;3.90;2.08;;;17.40;99.90;;;16.34;88.14;100672.81;3509107;40;102150;-40
2021/06/30 05:32:53;;;;;;;5.85;2.35;;;17.40;99.90;;;16.37;88.14;100680.53;3509971;40;102202;-42
2021/06/30 05:35:26;;;;;;;5.57;2.85;;;17.50;99.90;;;16.43;88.73;100678.69;3509584;40;102815;-42
2021/06/30 05:37:53;;;;;;;4.63;2.45;;;17.50;99.90;;;16.42;88.32;100679.78;3509500;40;103072;-41
2021/06/30 05:40:25;;;;;;;3.88;2.05;;;17.50;99.90;;;16.39;87.76;100681.13;3508880;40;102350;-41
2021/06/30 05:42:58;;;;;;;7.45;2.85;;;17.50;99.90;;;16.40;87.99;100680.03;3509614;40;102272;-41
2021/06/30 05:45:30;;;;;;;5.43;2.75;;;17.50;99.90;;;16.44;88.21;100686.69;3509436;40;102233;-41
2021/06/30 05:48:03;;;;;;;3.50;2.35;;;17.60;99.90;;;16.34;87.59;100683.81;3509496;40;103367;-40
2021/06/30 05:50:36;;;;;;;5.93;2.30;;;17.50;99.90;;;16.41;88.46;100691.91;3508581;40;105194;-41
2021/06/30 05:53:08;;;;;;;4.70;2.35;;;17.50;99.90;;;16.45;89.24;100685.63;3509237;40;103231;-41
2021/06/30 05:55:36;;;;;;;3.22;1.98;;;17.50;99.90;;;16.48;87.80;100690.63;3509703;40;102587;-41
2021/06/30 05:58:08;;;;;;;4.75;2.20;;;17.60;99.90;;;16.46;86.88;100689.19;3509452;40;102237;-42
2021/06/30 06:00:42;;;;;;;4.28;2.13;;;17.60;99.90;;;16.49;86.92;100695.03;3509374;40;102374;-41
2021/06/30 06:03:14;;;;;;;5.13;2.10;;;17.60;99.90;;;16.53;87.47;100693.44;3509602;40;102242;-42
2021/06/30 06:05:46;;;;;;;4.07;2.30;;;17.70;99.90;;;16.58;87.78;100687.16;3508632;40;102446;-41
2021/06/30 06:08:20;;;;;;;5.00;2.63;;;17.70;99.90;;;16.63;87.76;100684.47;3509175;40;103161;-41
2021/06/30 06:10:52;;;;;;;4.30;2.13;;;17.70;99.90;;;16.75;87.07;100683.50;3509003;40;102629;-40
2021/06/30 06:13:24;;;;;;;4.25;2.20;;;17.80;99.90;;;16.73;84.98;100677.41;3509098;40;102147;-45
2021/06/30 06:15:57;;;;;;;4.35;2.33;;;17.90;99.90;;;16.89;86.00;100690.28;3508979;40;102347;-41
2021/06/30 06:18:24;;;;;;;3.67;2.40;;;17.90;99.90;;;17.11;85.27;100684.75;3509349;40;104797;-41
2021/06/30 06:20:51;;;;;;;4.65;2.33;;;18.10;99.90;;;17.24;84.17;100679.94;3509468;40;102287;-40
2021/06/30 06:23:24;;;;;;;4.03;2.42;;;18.30;99.90;;;17.34;82.78;100680.00;3508927;40;104114;-40
2021/06/30 06:25:56;;;;;;;3.28;2.05;;;18.40;99.90;;;17.43;84.98;100685.88;3508762;40;102402;-41
2021/06/30 06:28:33;;;;;;;5.25;2.38;;;18.50;99.90;;;17.42;83.89;100677.88;3509467;40;103210;-41
2021/06/30 06:31:10;;;;;;;2.67;1.88;;;18.50;99.90;;;17.32;82.91;100682.19;3509061;40;102332;-41
2021/06/30 06:33:43;;;;;;;3.30;2.10;;;18.50;99.90;;;17.11;84.43;100693.03;3509328;40;102142;-42
2021/06/30 06:36:11;;;;;;;3.70;2.15;;;18.30;99.90;;;17.03;85.45;100689.91;3508915;40;102434;-41
2021/06/30 06:38:45;;;;;;;4.50;2.20;;;18.20;99.90;;;16.88;83.78;100693.28;3509000;40;102230;-41
2021/06/30 06:41:18;;;;;;;4.68;2.20;;;18.20;99.90;;;16.79;85.15;100695.66;3508972;40;102315;-41
2021/06/30 06:43:50;;;;;;;3.72;2.75;;;18.10;99.90;;;16.65;85.11;100692.47;3508782;40;102220;-41
2021/06/30 06:46:18;;;;;;;6.60;2.70;;;17.90;99.90;;;16.65;86.45;100692.47;3509017;40;102203;-40
2021/06/30 06:48:51;;;;;;;5.45;2.95;;;17.90;99.90;;;16.78;87.88;100694.84;3509146;40;102204;-41
2021/06/30 06:51:25;;;;;;;6.20;3.05;;;17.90;99.90;;;16.88;87.57;100698.78;3509323;40;102415;-41
2021/06/30 06:53:58;;;;;;;5.80;2.85;;;18.00;99.90;;;17.02;86.61;100694.59;3508783;40;103134;-40
2021/06/30 06:56:26;;;;;;;4.07;3.13;;;18.10;99.90;;;17.28;86.47;100703.13;3646933;22;102746;-41
2021/06/30 06:58:59;;;;;;;5.85;3.63;;;18.20;99.90;;;17.49;85.32;100701.38;3530709;39;102329;-41
2021/06/30 07:01:31;;;;;;;4.30;2.92;;;18.40;99.90;;;17.52;84.05;100700.84;3530165;39;102290;-42
2021/06/30 07:04:03;;;;;;;5.70;2.78;;;18.50;99.90;;;17.51;83.09;100707.47;3529895;39;102284;-42
2021/06/30 07:06:36;;;;;;;3.97;3.00;;;18.50;99.90;;;17.48;84.09;100709.91;3526248;39;102251;-41
2021/06/30 07:09:08;;;;;;;4.50;2.90;;;18.50;99.90;;;17.47;82.30;100703.56;3520492;39;103128;-42
2021/06/30 07:11:41;;;;;;;5.80;2.45;;;18.60;99.90;;;17.49;82.85;100717.09;3520382;39;103217;-41
2021/06/30 07:14:14;;;;;;;4.22;2.60;;;18.60;99.90;;;17.59;82.59;100719.94;3520459;39;104105;-42
2021/06/30 07:16:46;;;;;;;4.10;2.58;;;18.60;99.90;;;17.65;83.05;100724.41;3520213;39;102293;-41
2021/06/30 07:19:18;;;;;;;3.45;2.55;;;18.70;99.90;;;17.73;83.12;100727.78;3520407;39;103198;-41
2021/06/30 07:21:51;;;;;;;4.40;2.70;;;18.70;99.90;;;17.80;82.49;100725.66;3520280;39;102342;-41
2021/06/30 07:24:23;;;;;;;3.80;2.67;;;18.80;99.90;;;17.83;81.01;100733.41;3520688;39;103120;-41
2021/06/30 07:26:56;;;;;;;3.42;2.22;;;18.90;99.90;;;17.97;82.38;100731.81;3520197;39;102404;-43
2021/06/30 07:29:29;;;;;;;3.80;2.30;;;18.90;99.90;;;17.88;81.35;100733.44;3520265;39;104243;-42
2021/06/30 07:32:02;;;;;;;4.50;2.65;;;19.00;99.90;;;17.92;81.37;100726.28;3520235;39;102680;-42
2021/06/30 07:34:34;;;;;;;3.25;2.00;;;18.90;99.90;;;17.98;80.60;100732.69;3520211;39;103083;-44
2021/06/30 07:37:07;;;;;;;3.15;2.05;;;19.00;99.90;;;18.16;80.94;100739.72;3519954;39;102351;-42
2021/06/30 07:39:39;;;;;;;3.03;1.90;;;19.10;99.90;;;18.02;78.57;100741.28;3520346;39;102621;-42
2021/06/30 07:42:12;;;;;;;2.38;1.70;;;19.10;99.90;;;17.89;80.40;100739.75;3520777;39;102233;-41
2021/06/30 07:44:40;;;;;;;2.53;1.60;;;19.00;99.90;;;17.66;80.32;100741.81;3519906;39;103232;-42
2021/06/30 07:47:10;;;;;;;3.30;1.65;;;18.90;99.90;;;17.48;80.58;100741.09;3519979;39;102192;-42
2021/06/30 07:49:38;;;;;;;2.63;1.77;;;18.80;99.90;;;17.45;81.85;100751.78;3520082;39;102309;-42
2021/06/30 07:52:05;;;;;;;;;;;18.70;99.90;;;17.47;81.91;100749.59;3520872;39;102433;-41
2021/06/30 07:54:33;;;;;;;3.03;1.20;;;18.70;99.90;;;17.43;81.85;100745.72;3520345;39;102248;-42
2021/06/30 07:57:00;;;;;;;;;;;18.60;99.90;;;17.57;83.47;100755.25;3520749;39;102476;-42
2021/06/30 07:59:28;;;;;;;2.90;1.40;;;18.60;99.90;;;17.83;83.72;100752.72;3520262;39;102594;-41
2021/06/30 08:01:56;;;;;;;2.28;1.55;;;18.80;99.90;;;18.06;83.11;100750.72;3519599;39;102388;-43
2021/06/30 08:04:23;;;;;;;2.38;1.45;;;19.00;99.90;;;18.15;80.75;100749.13;3520287;39;102247;-41
2021/06/30 08:06:51;;;;;;;2.50;1.50;;;19.10;99.90;;;18.10;79.31;100741.63;3520454;39;102349;-42
2021/06/30 08:09:18;;;;;;;1.95;1.40;;;19.10;99.90;;;18.10;79.51;100744.38;3520277;39;102331;-41
2021/06/30 08:12:02;;;;;;;3.05;1.92;;;19.10;99.90;;;18.14;81.12;100743.84;3520164;39;102291;-42
2021/06/30 08:14:29;;;;;;;2.60;1.70;;;19.10;99.90;;;18.06;81.40;100746.00;3519938;39;102376;-42
2021/06/30 08:17:03;;;;;;;3.17;1.40;;;19.10;99.90;;;18.08;80.68;100737.47;3519941;39;102684;-42
2021/06/30 08:19:31;;;;;;;1.65;1.17;;;19.20;99.90;;;18.12;80.08;100741.38;3519888;39;104201;-43
2021/06/30 08:21:59;;;;;;;1.73;1.10;;;19.10;99.90;;;18.02;79.28;100739.34;3520437;39;102240;-44
2021/06/30 08:24:26;;;;;;;3.00;1.20;;;19.10;99.90;;;18.08;80.42;100734.72;3520342;39;102332;-41
2021/06/30 08:26:55;;;;;;;2.38;1.20;;;19.10;99.90;;;18.24;80.10;100730.94;3520067;39;102402;-42
2021/06/30 08:29:24;;;;;;;1.00;0.90;;;19.20;99.90;;;18.39;78.23;100734.91;3520009;39;102293;-42
2021/06/30 08:31:56;;;;;;;1.48;1.10;;;19.30;99.90;;;18.47;77.82;100739.91;3519902;39;103602;-42
2021/06/30 08:34:26;;;;;;;1.30;1.00;;;19.40;99.90;;;18.55;77.87;100739.41;3520379;39;104462;-42
2021/06/30 08:37:06;;;;;;;1.50;0.88;;;19.50;99.90;;;18.66;76.85;100731.19;3519633;39;102225;-42
2021/06/30 08:39:34;;;;;;;1.15;0.80;;;19.60;99.90;;;18.79;75.99;100743.66;3520242;39;103216;-42
2021/06/30 08:42:03;;;;;;;1.20;0.90;;;19.70;99.90;;;18.82;75.95;100738.41;3518849;40;103509;-42
2021/06/30 08:44:35;;;;;;;1.25;0.80;;;19.70;99.90;;;18.83;74.51;100733.72;3520250;39;102140;-42
2021/06/30 08:47:03;;;;;;;1.25;0.90;;;19.80;99.90;;;18.88;75.78;100741.22;3519996;39;102454;-42
2021/06/30 08:49:39;;;;;;;1.45;0.80;;;19.80;99.90;;;18.88;73.79;100738.44;3520282;39;102301;-41
2021/06/30 08:52:08;;;;;;;1.30;0.85;;;19.90;99.90;;;18.90;74.23;100739.00;3520031;39;102204;-42
2021/06/30 08:54:39;;;;;;;2.83;1.15;;;19.90;99.90;;;18.71;76.36;100736.72;3519925;39;103271;-41
2021/06/30 08:57:07;;;;;;;1.00;0.82;;;19.80;99.90;;;18.55;76.58;100733.88;3518939;40;102513;-41
2021/06/30 08:59:36;;;;;;;1.58;0.98;;;19.70;99.90;;;18.51;78.51;100740.22;3519770;39;102310;-42
2021/06/30 09:02:05;;;;;;;2.25;1.10;;;19.70;99.90;;;18.47;79.57;100747.38;3519801;39;102250;-41
2021/06/30 09:04:33;;;;;;;2.20;1.23;;;19.60;99.90;;;18.53;79.74;100749.06;3519890;39;103404;-42
2021/06/30 09:07:01;;;;;;;2.42;1.20;;;19.60;99.90;;;18.43;77.71;100743.47;3519604;39;102405;-42
2021/06/30 09:09:42;;;;;;;1.27;0.95;;;19.50;99.90;;;18.69;78.83;100745.25;3520047;40;103330;-42
2021/06/30 09:12:12;;;;;;;1.77;1.25;;;19.60;99.90;;;18.89;78.98;100740.94;3520357;39;102283;-41
2021/06/30 09:14:41;;;;;;;2.05;1.30;;;19.80;99.90;;;18.61;74.82;100733.91;3519408;39;102351;-41
2021/06/30 09:20:08;;;;;;;1.65;1.08;;;19.70;99.90;;;18.47;76.32;100747.38;3520424;39;102275;-41
2021/06/30 09:22:47;;;;;;;2.30;1.20;;;19.60;99.90;;;18.52;77.80;100748.22;3519800;39;102373;-42
2021/06/30 09:25:27;;;;;;;3.15;1.13;;;19.60;99.90;;;18.63;75.18;100754.63;3519977;39;102797;-42
2021/06/30 09:27:55;;;;;;;2.70;1.10;;;19.60;99.90;;;18.81;78.74;100756.09;3519440;39;102363;-42
2021/06/30 09:30:23;;;;;;;1.80;0.98;;;19.70;99.90;;;18.81;76.11;100758.84;3519821;39;102155;-41
2021/06/30 09:32:55;;;;;;;;;;;19.70;99.90;;;18.82;76.55;100770.75;3520741;39;102587;-41
2021/06/30 09:35:40;;;;;;;1.38;0.70;;;19.70;99.90;;;18.52;74.94;100781.38;3519511;39;102287;-42
2021/06/30 09:38:27;;;;;;;1.23;0.77;;;19.70;99.90;;;18.30;75.54;100777.91;3519451;39;102346;-43
2021/06/30 09:40:55;;;;;;;1.30;0.77;;;19.50;99.90;;;18.06;75.00;100787.41;3520127;39;102203;-42
2021/06/30 09:43:27;;;;;;;1.40;1.00;;;19.30;99.90;;;17.93;75.76;100783.13;3520152;39;102411;-43
2021/06/30 09:45:58;;;;;;;2.00;1.08;;;19.20;99.90;;;17.95;76.59;100786.47;3519459;39;104141;-41
2021/06/30 09:48:34;;;;;;;1.60;1.00;;;19.10;99.90;;;18.00;77.60;100782.06;3519212;40;102439;-42
2021/06/30 09:51:05;;;;;;;1.73;1.20;;;19.20;99.90;;;17.95;76.22;100791.97;3519963;39;102286;-42
2021/06/30 09:53:41;;;;;;;1.67;1.15;;;19.10;99.90;;;17.77;76.43;100795.13;3519746;40;103298;-41
2021/06/30 09:56:13;;;;;;;1.52;1.00;;;19.00;99.90;;;17.67;78.48;100793.94;3519326;39;102210;-43
2021/06/30 09:59:14;;;;;;;2.53;0.70;;;18.90;99.90;;;17.46;78.79;100789.31;3519946;39;102179;-41
2021/06/30 10:01:54;;;;;;;1.33;0.80;;;18.70;99.90;;;17.35;78.21;100791.13;3519892;39;102773;-42
2021/06/30 10:04:43;;;;;;;1.27;0.88;;;18.60;99.90;;;17.34;79.11;100794.97;3519372;39;102588;-43
2021/06/30 10:07:22;;;;;;;2.55;1.10;;;18.60;99.90;;;17.33;79.83;100793.31;3518860;40;103368;-41
2021/06/30 10:09:52;;;;;;;1.90;1.17;;;18.50;99.90;;;17.33;79.94;100798.81;3526460;39;102354;-44
2021/06/30 10:12:26;;;;;;;1.73;1.10;;;18.50;99.90;;;17.34;80.07;100798.56;3519644;39;102404;-43
2021/06/30 10:14:54;;;;;;;2.30;1.40;;;18.50;99.90;;;17.39;80.34;100792.28;3519283;39;102441;-42
2021/06/30 10:17:23;;;;;;;2.28;1.40;;;18.50;99.90;;;17.53;82.35;100798.22;3519402;39;102375;-43
2021/06/30 10:19:53;;;;;;;2.67;1.52;;;18.60;99.90;;;17.66;80.67;100802.50;3519338;39;102454;-42
2021/06/30 10:22:25;;;;;;;2.80;1.70;;;18.70;99.90;;;17.76;79.77;100798.97;3519797;39;103261;-42
2021/06/30 10:24:54;;;;;;;3.00;1.75;;;18.70;99.90;;;17.83;78.53;100808.72;3519833;39;102556;-39
2021/06/30 10:27:22;;;;;;;3.60;1.88;;;18.80;99.90;;;17.88;78.14;100801.56;3520851;39;103240;-41
2021/06/30 10:30:00;;;;;;;2.70;1.67;;;18.90;99.90;;;17.98;77.73;100802.50;3520632;39;102174;-42